テヘラン の空港の天気 - METARとTAF

メヘラーバード国際空港(テヘラン) ( OIII / THR ) - イラン テヘラン
飛行場実況気象(Metar)
観測時間01/29 10:00 IRST (01/29 06:30 UTC)
風向・風速南 3m/s
視程6000m
天気現象
少しの雲 雲底高度 3050m
全天の4割程度の雲 雲底高度 6100m
気温6℃
湿度28%
気圧1020hPa
METAROIII 290630Z 18006KT 6000 FEW100 SCT200 06/M11 Q1020 A3014
過去の天気等 Google飛行場航空写真 Wunderground天気予報

過去48時間のMETAR

飛行場予報(TAF)
発表時間: 1/29 09:00 IRST (1/29 05:30 UTC)
予報対象時間: 29日9時 IRST ~ 30日15時 IRST
風向・風速南南西 2m/s
視程8000m
なし
29日9時 IRST から 確率 30% で
視程4000m
天気現象煙霧
29日18時 IRST ~ 29日21時 IRST に一時的に
風向・風速北 9m/s
30日6時 IRST ~ 30日8時 IRST に徐々に
視程3000m
天気現象煙霧
30日13時 IRST ~ 30日15時 IRST に徐々に
視程6000m
なし
TAF OIII 290530Z 2906/3012 21004KT 8000 NSC
PROB30 2906/2910 4000 HZ
TEMPO 2915/2918 36018KT
BECMG 3003/3005 3000 HZ
BECMG 3010/3012 6000 NSC